sensor_id;sensor_type;location;lat;lon;timestamp;temperature;humidity
2611;DHT22;5612;51.134;17.058;2022-12-18T00:01:36;-3.70;99.90
2611;DHT22;5612;51.134;17.058;2022-12-18T00:04:07;-3.70;99.90
2611;DHT22;5612;51.134;17.058;2022-12-18T00:06:36;-3.70;1.00
2611;DHT22;5612;51.134;17.058;2022-12-18T00:09:05;-3.70;1.00
2611;DHT22;5612;51.134;17.058;2022-12-18T00:11:35;-3.50;1.00
2611;DHT22;5612;51.134;17.058;2022-12-18T00:14:04;-3.40;99.90
2611;DHT22;5612;51.134;17.058;2022-12-18T00:16:32;-3.30;99.90
2611;DHT22;5612;51.134;17.058;2022-12-18T00:19:04;-3.20;99.90
2611;DHT22;5612;51.134;17.058;2022-12-18T00:21:34;-3.20;99.90
2611;DHT22;5612;51.134;17.058;2022-12-18T00:24:03;-3.20;1.00
2611;DHT22;5612;51.134;17.058;2022-12-18T00:26:35;-3.20;1.00
2611;DHT22;5612;51.134;17.058;2022-12-18T00:29:06;-3.30;1.00
2611;DHT22;5612;51.134;17.058;2022-12-18T00:31:36;-3.20;99.90
2611;DHT22;5612;51.134;17.058;2022-12-18T00:34:06;-3.10;1.00
2611;DHT22;5612;51.134;17.058;2022-12-18T00:36:35;-3.20;1.00
2611;DHT22;5612;51.134;17.058;2022-12-18T00:39:05;-3.20;10.80
2611;DHT22;5612;51.134;17.058;2022-12-18T00:41:35;-3.20;6.50
2611;DHT22;5612;51.134;17.058;2022-12-18T00:44:21;-3.20;1.00
2611;DHT22;5612;51.134;17.058;2022-12-18T00:46:50;-3.40;1.00
2611;DHT22;5612;51.134;17.058;2022-12-18T00:49:19;-3.40;99.90
2611;DHT22;5612;51.134;17.058;2022-12-18T00:51:48;-3.50;99.90
2611;DHT22;5612;51.134;17.058;2022-12-18T00:54:17;-3.40;1.00
2611;DHT22;5612;51.134;17.058;2022-12-18T00:56:47;-3.30;1.00
2611;DHT22;5612;51.134;17.058;2022-12-18T00:59:18;-3.20;99.90
2611;DHT22;5612;51.134;17.058;2022-12-18T01:01:47;-3.20;6.70
2611;DHT22;5612;51.134;17.058;2022-12-18T01:04:16;-3.30;99.90
2611;DHT22;5612;51.134;17.058;2022-12-18T01:06:45;-3.20;99.90
2611;DHT22;5612;51.134;17.058;2022-12-18T01:09:13;-3.20;99.90
2611;DHT22;5612;51.134;17.058;2022-12-18T01:11:42;-3.10;1.00
2611;DHT22;5612;51.134;17.058;2022-12-18T01:14:12;-3.10;99.90
2611;DHT22;5612;51.134;17.058;2022-12-18T01:16:41;-3.00;1.00
2611;DHT22;5612;51.134;17.058;2022-12-18T01:19:10;-2.90;99.90
2611;DHT22;5612;51.134;17.058;2022-12-18T01:21:39;-2.80;99.90
2611;DHT22;5612;51.134;17.058;2022-12-18T01:24:09;-2.90;1.00
2611;DHT22;5612;51.134;17.058;2022-12-18T01:26:39;-3.00;99.90
2611;DHT22;5612;51.134;17.058;2022-12-18T01:29:08;-2.90;1.00
2611;DHT22;5612;51.134;17.058;2022-12-18T01:31:38;-2.90;99.90
2611;DHT22;5612;51.134;17.058;2022-12-18T01:34:08;-3.00;1.00
2611;DHT22;5612;51.134;17.058;2022-12-18T01:36:38;-2.90;1.00
2611;DHT22;5612;51.134;17.058;2022-12-18T01:39:10;-3.00;99.90
2611;DHT22;5612;51.134;17.058;2022-12-18T01:41:39;-3.00;1.00
2611;DHT22;5612;51.134;17.058;2022-12-18T01:44:55;-3.10;1.00
2611;DHT22;5612;51.134;17.058;2022-12-18T01:47:29;-3.30;99.90
2611;DHT22;5612;51.134;17.058;2022-12-18T01:50:03;-3.30;99.90
2611;DHT22;5612;51.134;17.058;2022-12-18T01:52:33;-3.10;99.90
2611;DHT22;5612;51.134;17.058;2022-12-18T01:55:05;-3.10;99.90
2611;DHT22;5612;51.134;17.058;2022-12-18T01:57:35;-3.00;99.90
2611;DHT22;5612;51.134;17.058;2022-12-18T02:00:08;-2.90;55.50
2611;DHT22;5612;51.134;17.058;2022-12-18T02:02:40;-2.80;99.90
2611;DHT22;5612;51.134;17.058;2022-12-18T02:05:10;-3.00;99.90
2611;DHT22;5612;51.134;17.058;2022-12-18T02:07:46;-3.00;1.00
2611;DHT22;5612;51.134;17.058;2022-12-18T02:10:24;-2.90;1.00
2611;DHT22;5612;51.134;17.058;2022-12-18T02:12:59;-2.90;30.10
2611;DHT22;5612;51.134;17.058;2022-12-18T02:15:36;-2.90;99.90
2611;DHT22;5612;51.134;17.058;2022-12-18T02:18:12;-3.10;1.00
2611;DHT22;5612;51.134;17.058;2022-12-18T02:20:46;-3.20;7.00
2611;DHT22;5612;51.134;17.058;2022-12-18T02:23:26;-3.30;1.00
2611;DHT22;5612;51.134;17.058;2022-12-18T02:26:11;-3.30;1.00
2611;DHT22;5612;51.134;17.058;2022-12-18T02:28:45;-3.30;99.90
2611;DHT22;5612;51.134;17.058;2022-12-18T02:31:18;-3.30;99.90
2611;DHT22;5612;51.134;17.058;2022-12-18T02:33:49;-3.20;1.00
2611;DHT22;5612;51.134;17.058;2022-12-18T02:36:20;-3.10;1.00
2611;DHT22;5612;51.134;17.058;2022-12-18T02:38:51;-3.00;1.00
2611;DHT22;5612;51.134;17.058;2022-12-18T02:41:23;-3.00;1.00
2611;DHT22;5612;51.134;17.058;2022-12-18T02:43:56;-2.90;99.90
2611;DHT22;5612;51.134;17.058;2022-12-18T02:46:32;-2.90;99.90
2611;DHT22;5612;51.134;17.058;2022-12-18T02:49:09;-2.90;1.00
2611;DHT22;5612;51.134;17.058;2022-12-18T02:51:47;-2.80;99.90
2611;DHT22;5612;51.134;17.058;2022-12-18T02:54:28;-2.70;99.90
2611;DHT22;5612;51.134;17.058;2022-12-18T02:57:05;-2.90;99.90
2611;DHT22;5612;51.134;17.058;2022-12-18T02:59:43;-2.90;1.00
2611;DHT22;5612;51.134;17.058;2022-12-18T03:02:21;-2.80;1.00
2611;DHT22;5612;51.134;17.058;2022-12-18T03:04:58;-2.90;1.00
2611;DHT22;5612;51.134;17.058;2022-12-18T03:07:36;-2.70;1.00
2611;DHT22;5612;51.134;17.058;2022-12-18T03:10:07;-2.70;99.90
2611;DHT22;5612;51.134;17.058;2022-12-18T03:12:44;-2.70;99.90
2611;DHT22;5612;51.134;17.058;2022-12-18T03:15:18;-2.60;99.90
2611;DHT22;5612;51.134;17.058;2022-12-18T03:17:51;-2.60;99.90
2611;DHT22;5612;51.134;17.058;2022-12-18T03:20:22;-2.50;1.00
2611;DHT22;5612;51.134;17.058;2022-12-18T03:22:57;-2.50;1.00
2611;DHT22;5612;51.134;17.058;2022-12-18T03:25:29;-2.60;1.00
2611;DHT22;5612;51.134;17.058;2022-12-18T03:28:01;-2.70;1.00
2611;DHT22;5612;51.134;17.058;2022-12-18T03:30:34;-2.60;1.00
2611;DHT22;5612;51.134;17.058;2022-12-18T03:33:08;-2.60;99.90
2611;DHT22;5612;51.134;17.058;2022-12-18T03:35:41;-2.60;99.90
2611;DHT22;5612;51.134;17.058;2022-12-18T03:38:11;-2.60;1.00
2611;DHT22;5612;51.134;17.058;2022-12-18T03:40:56;-2.40;1.00
2611;DHT22;5612;51.134;17.058;2022-12-18T03:43:38;-2.30;1.00
2611;DHT22;5612;51.134;17.058;2022-12-18T03:46:15;-2.50;99.90
2611;DHT22;5612;51.134;17.058;2022-12-18T03:48:48;-2.50;99.90
2611;DHT22;5612;51.134;17.058;2022-12-18T03:51:23;-2.40;99.90
2611;DHT22;5612;51.134;17.058;2022-12-18T03:53:57;-2.50;99.90
2611;DHT22;5612;51.134;17.058;2022-12-18T03:56:29;-2.50;99.90
2611;DHT22;5612;51.134;17.058;2022-12-18T03:59:02;-2.50;99.90
2611;DHT22;5612;51.134;17.058;2022-12-18T04:01:34;-2.50;99.90
2611;DHT22;5612;51.134;17.058;2022-12-18T04:04:05;-2.50;1.00
2611;DHT22;5612;51.134;17.058;2022-12-18T04:06:35;-2.50;99.90
2611;DHT22;5612;51.134;17.058;2022-12-18T04:09:05;-2.40;99.90
2611;DHT22;5612;51.134;17.058;2022-12-18T04:11:34;-2.40;99.90
2611;DHT22;5612;51.134;17.058;2022-12-18T04:14:04;-2.50;99.90
2611;DHT22;5612;51.134;17.058;2022-12-18T04:16:33;-2.60;99.90
2611;DHT22;5612;51.134;17.058;2022-12-18T04:19:02;-2.70;99.90
2611;DHT22;5612;51.134;17.058;2022-12-18T04:21:31;-2.70;1.00
2611;DHT22;5612;51.134;17.058;2022-12-18T04:23:59;-2.80;1.00
2611;DHT22;5612;51.134;17.058;2022-12-18T04:26:28;-3.00;1.00
2611;DHT22;5612;51.134;17.058;2022-12-18T04:28:57;-3.00;4.70
2611;DHT22;5612;51.134;17.058;2022-12-18T04:31:27;-3.10;1.00
2611;DHT22;5612;51.134;17.058;2022-12-18T04:33:56;-3.30;99.90
2611;DHT22;5612;51.134;17.058;2022-12-18T04:36:26;-3.30;31.10
2611;DHT22;5612;51.134;17.058;2022-12-18T04:38:54;-3.40;1.00
2611;DHT22;5612;51.134;17.058;2022-12-18T04:41:23;-3.20;99.90
2611;DHT22;5612;51.134;17.058;2022-12-18T04:43:52;-3.20;1.00
2611;DHT22;5612;51.134;17.058;2022-12-18T04:46:20;-3.20;23.00
2611;DHT22;5612;51.134;17.058;2022-12-18T04:48:51;-3.10;99.90
2611;DHT22;5612;51.134;17.058;2022-12-18T04:51:19;-3.10;1.00
2611;DHT22;5612;51.134;17.058;2022-12-18T04:53:52;-3.10;1.00
2611;DHT22;5612;51.134;17.058;2022-12-18T04:56:22;-3.00;1.00
2611;DHT22;5612;51.134;17.058;2022-12-18T04:58:50;-2.90;99.90
2611;DHT22;5612;51.134;17.058;2022-12-18T05:01:19;-3.00;99.90
2611;DHT22;5612;51.134;17.058;2022-12-18T05:03:50;-3.10;1.00
2611;DHT22;5612;51.134;17.058;2022-12-18T05:06:19;-3.20;40.90
2611;DHT22;5612;51.134;17.058;2022-12-18T05:08:48;-3.20;99.90
2611;DHT22;5612;51.134;17.058;2022-12-18T05:11:16;-3.20;99.90
2611;DHT22;5612;51.134;17.058;2022-12-18T05:13:46;-3.10;99.90
2611;DHT22;5612;51.134;17.058;2022-12-18T05:16:15;-2.90;99.90
2611;DHT22;5612;51.134;17.058;2022-12-18T05:18:44;-2.80;1.00
2611;DHT22;5612;51.134;17.058;2022-12-18T05:21:14;-2.70;1.00
2611;DHT22;5612;51.134;17.058;2022-12-18T05:23:42;-2.80;99.90
2611;DHT22;5612;51.134;17.058;2022-12-18T05:26:15;-2.90;99.90
2611;DHT22;5612;51.134;17.058;2022-12-18T05:28:45;-3.10;1.00
2611;DHT22;5612;51.134;17.058;2022-12-18T05:31:14;-3.30;1.00
2611;DHT22;5612;51.134;17.058;2022-12-18T05:33:43;-3.30;4.10
2611;DHT22;5612;51.134;17.058;2022-12-18T05:36:13;-3.20;99.90
2611;DHT22;5612;51.134;17.058;2022-12-18T05:38:42;-3.30;1.00
2611;DHT22;5612;51.134;17.058;2022-12-18T05:41:11;-3.40;99.90
2611;DHT22;5612;51.134;17.058;2022-12-18T05:43:40;-3.40;99.90
2611;DHT22;5612;51.134;17.058;2022-12-18T05:46:12;-3.60;1.00
2611;DHT22;5612;51.134;17.058;2022-12-18T05:48:42;-3.60;89.70
2611;DHT22;5612;51.134;17.058;2022-12-18T05:51:13;-3.70;1.00
2611;DHT22;5612;51.134;17.058;2022-12-18T05:53:43;-3.70;1.00
2611;DHT22;5612;51.134;17.058;2022-12-18T05:56:13;-3.70;6.20
2611;DHT22;5612;51.134;17.058;2022-12-18T05:58:43;-3.90;1.00
2611;DHT22;5612;51.134;17.058;2022-12-18T06:01:14;-3.80;1.00
2611;DHT22;5612;51.134;17.058;2022-12-18T06:03:44;-3.90;1.00
2611;DHT22;5612;51.134;17.058;2022-12-18T06:06:16;-3.90;99.90
2611;DHT22;5612;51.134;17.058;2022-12-18T06:08:46;-3.90;1.00
2611;DHT22;5612;51.134;17.058;2022-12-18T06:11:17;-3.80;1.00
2611;DHT22;5612;51.134;17.058;2022-12-18T06:13:49;-4.00;99.90
2611;DHT22;5612;51.134;17.058;2022-12-18T06:16:24;-3.90;1.00
2611;DHT22;5612;51.134;17.058;2022-12-18T06:18:53;-4.00;1.00
2611;DHT22;5612;51.134;17.058;2022-12-18T06:21:25;-4.10;99.90
2611;DHT22;5612;51.134;17.058;2022-12-18T06:23:54;-4.10;99.90
2611;DHT22;5612;51.134;17.058;2022-12-18T06:26:23;-4.00;1.00
2611;DHT22;5612;51.134;17.058;2022-12-18T06:28:54;-3.90;1.00
2611;DHT22;5612;51.134;17.058;2022-12-18T06:31:24;-3.80;99.90
2611;DHT22;5612;51.134;17.058;2022-12-18T06:33:53;-3.50;99.90
2611;DHT22;5612;51.134;17.058;2022-12-18T06:36:22;-3.50;99.90
2611;DHT22;5612;51.134;17.058;2022-12-18T06:38:52;-3.40;99.90
2611;DHT22;5612;51.134;17.058;2022-12-18T06:41:21;-3.30;1.00
2611;DHT22;5612;51.134;17.058;2022-12-18T06:43:50;-3.50;99.90
2611;DHT22;5612;51.134;17.058;2022-12-18T06:46:25;-3.50;99.90
2611;DHT22;5612;51.134;17.058;2022-12-18T06:48:54;-3.60;99.90
2611;DHT22;5612;51.134;17.058;2022-12-18T06:51:23;-3.80;1.00
2611;DHT22;5612;51.134;17.058;2022-12-18T06:53:54;-3.70;1.00
2611;DHT22;5612;51.134;17.058;2022-12-18T06:56:23;-3.60;1.00
2611;DHT22;5612;51.134;17.058;2022-12-18T06:58:51;-3.60;1.00
2611;DHT22;5612;51.134;17.058;2022-12-18T07:01:21;-3.50;1.00
2611;DHT22;5612;51.134;17.058;2022-12-18T07:03:52;-3.50;1.00
2611;DHT22;5612;51.134;17.058;2022-12-18T07:06:23;-3.40;1.00
2611;DHT22;5612;51.134;17.058;2022-12-18T07:08:54;-3.50;1.00
2611;DHT22;5612;51.134;17.058;2022-12-18T07:11:23;-3.50;99.90
2611;DHT22;5612;51.134;17.058;2022-12-18T07:13:52;-3.50;99.90
2611;DHT22;5612;51.134;17.058;2022-12-18T07:16:21;-3.50;1.00
2611;DHT22;5612;51.134;17.058;2022-12-18T07:18:52;-3.60;99.90
2611;DHT22;5612;51.134;17.058;2022-12-18T07:21:21;-3.70;99.90
2611;DHT22;5612;51.134;17.058;2022-12-18T07:23:50;-3.80;99.90
2611;DHT22;5612;51.134;17.058;2022-12-18T07:26:21;-3.90;1.00
2611;DHT22;5612;51.134;17.058;2022-12-18T07:28:50;-3.90;99.90
2611;DHT22;5612;51.134;17.058;2022-12-18T07:31:22;-3.70;99.90
2611;DHT22;5612;51.134;17.058;2022-12-18T07:33:52;-3.50;99.90
2611;DHT22;5612;51.134;17.058;2022-12-18T07:36:21;-3.40;1.00
2611;DHT22;5612;51.134;17.058;2022-12-18T07:38:50;-3.50;99.90
2611;DHT22;5612;51.134;17.058;2022-12-18T07:41:21;-3.50;99.90
2611;DHT22;5612;51.134;17.058;2022-12-18T07:43:50;-3.80;1.00
2611;DHT22;5612;51.134;17.058;2022-12-18T07:46:19;-3.80;40.50
2611;DHT22;5612;51.134;17.058;2022-12-18T07:48:48;-3.80;99.90
2611;DHT22;5612;51.134;17.058;2022-12-18T07:51:17;-3.80;99.90
2611;DHT22;5612;51.134;17.058;2022-12-18T07:53:46;-3.90;99.90
2611;DHT22;5612;51.134;17.058;2022-12-18T07:56:20;-4.10;99.90
2611;DHT22;5612;51.134;17.058;2022-12-18T07:58:55;-4.00;1.00
2611;DHT22;5612;51.134;17.058;2022-12-18T08:01:24;-3.90;1.00
2611;DHT22;5612;51.134;17.058;2022-12-18T08:03:53;-3.90;1.00
2611;DHT22;5612;51.134;17.058;2022-12-18T08:06:22;-3.70;99.90
2611;DHT22;5612;51.134;17.058;2022-12-18T08:08:52;-3.70;99.90
2611;DHT22;5612;51.134;17.058;2022-12-18T08:11:25;-3.80;97.90
2611;DHT22;5612;51.134;17.058;2022-12-18T08:13:55;-3.80;1.00
2611;DHT22;5612;51.134;17.058;2022-12-18T08:16:23;-3.80;40.60
2611;DHT22;5612;51.134;17.058;2022-12-18T08:18:53;-3.80;1.00
2611;DHT22;5612;51.134;17.058;2022-12-18T08:21:24;-3.80;1.00
2611;DHT22;5612;51.134;17.058;2022-12-18T08:23:54;-4.00;54.30
2611;DHT22;5612;51.134;17.058;2022-12-18T08:26:26;-3.90;75.50
2611;DHT22;5612;51.134;17.058;2022-12-18T08:28:57;-3.90;1.00
2611;DHT22;5612;51.134;17.058;2022-12-18T08:31:28;-4.00;1.00
2611;DHT22;5612;51.134;17.058;2022-12-18T08:33:57;-3.90;1.00
2611;DHT22;5612;51.134;17.058;2022-12-18T08:36:26;-4.00;1.00
2611;DHT22;5612;51.134;17.058;2022-12-18T08:38:54;-3.90;1.00
2611;DHT22;5612;51.134;17.058;2022-12-18T08:41:26;-3.90;1.00
2611;DHT22;5612;51.134;17.058;2022-12-18T08:43:56;-3.90;1.00
2611;DHT22;5612;51.134;17.058;2022-12-18T08:46:43;-3.90;1.00
2611;DHT22;5612;51.134;17.058;2022-12-18T08:49:12;-3.90;1.00
2611;DHT22;5612;51.134;17.058;2022-12-18T08:51:41;-3.80;1.00
2611;DHT22;5612;51.134;17.058;2022-12-18T08:54:11;-3.60;99.90
2611;DHT22;5612;51.134;17.058;2022-12-18T08:56:42;-3.40;99.90
2611;DHT22;5612;51.134;17.058;2022-12-18T08:59:11;-3.20;99.90
2611;DHT22;5612;51.134;17.058;2022-12-18T09:01:46;-3.20;1.00
2611;DHT22;5612;51.134;17.058;2022-12-18T09:04:15;-3.20;1.00
2611;DHT22;5612;51.134;17.058;2022-12-18T09:06:44;-3.30;1.00
2611;DHT22;5612;51.134;17.058;2022-12-18T09:09:13;-3.20;1.00
2611;DHT22;5612;51.134;17.058;2022-12-18T09:11:46;-3.10;1.00
2611;DHT22;5612;51.134;17.058;2022-12-18T09:14:20;-3.00;1.00
2611;DHT22;5612;51.134;17.058;2022-12-18T09:16:50;-3.10;1.00
2611;DHT22;5612;51.134;17.058;2022-12-18T09:19:22;-3.20;1.00
2611;DHT22;5612;51.134;17.058;2022-12-18T09:21:53;-3.10;1.00
2611;DHT22;5612;51.134;17.058;2022-12-18T09:24:25;-3.00;1.00
2611;DHT22;5612;51.134;17.058;2022-12-18T09:26:56;-2.90;1.00
2611;DHT22;5612;51.134;17.058;2022-12-18T09:29:25;-3.00;99.90
2611;DHT22;5612;51.134;17.058;2022-12-18T09:31:55;-3.20;1.00
2611;DHT22;5612;51.134;17.058;2022-12-18T09:34:25;-3.00;1.00
2611;DHT22;5612;51.134;17.058;2022-12-18T09:36:55;-2.90;99.90
2611;DHT22;5612;51.134;17.058;2022-12-18T09:39:26;-3.00;99.90
2611;DHT22;5612;51.134;17.058;2022-12-18T09:42:01;-3.00;1.00
2611;DHT22;5612;51.134;17.058;2022-12-18T09:44:34;-3.10;99.90
2611;DHT22;5612;51.134;17.058;2022-12-18T09:47:14;-3.00;1.00
2611;DHT22;5612;51.134;17.058;2022-12-18T09:49:50;-2.80;1.00
2611;DHT22;5612;51.134;17.058;2022-12-18T09:52:26;-2.60;99.90
2611;DHT22;5612;51.134;17.058;2022-12-18T09:55:14;-2.70;99.90
2611;DHT22;5612;51.134;17.058;2022-12-18T09:57:52;-2.90;99.90
2611;DHT22;5612;51.134;17.058;2022-12-18T10:00:25;-2.80;99.90
2611;DHT22;5612;51.134;17.058;2022-12-18T10:03:08;-2.90;99.90
2611;DHT22;5612;51.134;17.058;2022-12-18T10:05:45;-2.80;99.90
2611;DHT22;5612;51.134;17.058;2022-12-18T10:08:24;-2.80;99.90
2611;DHT22;5612;51.134;17.058;2022-12-18T10:11:00;-2.80;99.90
2611;DHT22;5612;51.134;17.058;2022-12-18T10:13:36;-2.80;99.90
2611;DHT22;5612;51.134;17.058;2022-12-18T10:16:13;-2.80;99.90
2611;DHT22;5612;51.134;17.058;2022-12-18T10:18:59;-2.70;99.90
2611;DHT22;5612;51.134;17.058;2022-12-18T10:21:33;-2.80;99.90
2611;DHT22;5612;51.134;17.058;2022-12-18T10:24:13;-2.90;99.90
2611;DHT22;5612;51.134;17.058;2022-12-18T10:26:44;-3.00;99.90
2611;DHT22;5612;51.134;17.058;2022-12-18T10:29:16;-3.00;99.90
2611;DHT22;5612;51.134;17.058;2022-12-18T10:31:45;-2.80;1.00
2611;DHT22;5612;51.134;17.058;2022-12-18T10:34:14;-2.90;1.00
2611;DHT22;5612;51.134;17.058;2022-12-18T10:36:44;-2.90;99.90
2611;DHT22;5612;51.134;17.058;2022-12-18T10:39:17;-3.30;99.90
2611;DHT22;5612;51.134;17.058;2022-12-18T10:41:47;-3.30;1.00
2611;DHT22;5612;51.134;17.058;2022-12-18T10:44:20;-3.20;1.00
2611;DHT22;5612;51.134;17.058;2022-12-18T10:46:55;-3.00;1.00
2611;DHT22;5612;51.134;17.058;2022-12-18T10:49:26;-2.90;1.00
2611;DHT22;5612;51.134;17.058;2022-12-18T10:52:07;-2.90;99.90
2611;DHT22;5612;51.134;17.058;2022-12-18T10:54:39;-3.00;1.00
2611;DHT22;5612;51.134;17.058;2022-12-18T10:57:16;-2.90;1.00
2611;DHT22;5612;51.134;17.058;2022-12-18T10:59:54;-2.90;1.00
2611;DHT22;5612;51.134;17.058;2022-12-18T11:02:29;-2.90;99.90
2611;DHT22;5612;51.134;17.058;2022-12-18T11:05:22;-2.90;99.90
2611;DHT22;5612;51.134;17.058;2022-12-18T11:07:52;-3.10;1.00
2611;DHT22;5612;51.134;17.058;2022-12-18T11:10:25;-3.10;1.00
2611;DHT22;5612;51.134;17.058;2022-12-18T11:13:16;-3.20;1.00
2611;DHT22;5612;51.134;17.058;2022-12-18T11:15:47;-2.90;1.00
2611;DHT22;5612;51.134;17.058;2022-12-18T11:18:20;-2.80;1.00
2611;DHT22;5612;51.134;17.058;2022-12-18T11:20:52;-2.70;99.90
2611;DHT22;5612;51.134;17.058;2022-12-18T11:23:25;-2.70;99.90
2611;DHT22;5612;51.134;17.058;2022-12-18T11:25:59;-2.70;1.00
2611;DHT22;5612;51.134;17.058;2022-12-18T11:28:35;-2.50;99.90
2611;DHT22;5612;51.134;17.058;2022-12-18T11:31:17;-2.70;99.90
2611;DHT22;5612;51.134;17.058;2022-12-18T11:33:50;-3.00;1.00
2611;DHT22;5612;51.134;17.058;2022-12-18T11:36:44;-3.00;1.00
2611;DHT22;5612;51.134;17.058;2022-12-18T11:39:18;-3.10;1.00
2611;DHT22;5612;51.134;17.058;2022-12-18T11:41:53;-3.10;1.00
2611;DHT22;5612;51.134;17.058;2022-12-18T11:44:45;-3.10;1.00
2611;DHT22;5612;51.134;17.058;2022-12-18T11:47:25;-3.00;1.00
2611;DHT22;5612;51.134;17.058;2022-12-18T11:50:00;-2.90;1.00
2611;DHT22;5612;51.134;17.058;2022-12-18T11:52:34;-2.80;99.90
2611;DHT22;5612;51.134;17.058;2022-12-18T11:55:12;-2.80;1.00
2611;DHT22;5612;51.134;17.058;2022-12-18T11:57:49;-2.80;99.90
2611;DHT22;5612;51.134;17.058;2022-12-18T12:00:22;-2.90;99.90
2611;DHT22;5612;51.134;17.058;2022-12-18T12:03:27;-2.80;1.00
2611;DHT22;5612;51.134;17.058;2022-12-18T12:06:09;-2.70;1.00
2611;DHT22;5612;51.134;17.058;2022-12-18T12:08:50;-2.60;99.90
2611;DHT22;5612;51.134;17.058;2022-12-18T12:11:28;-2.60;99.90
2611;DHT22;5612;51.134;17.058;2022-12-18T12:14:16;-2.60;99.90
2611;DHT22;5612;51.134;17.058;2022-12-18T12:16:51;-2.60;99.90
2611;DHT22;5612;51.134;17.058;2022-12-18T12:19:33;-2.40;99.90
2611;DHT22;5612;51.134;17.058;2022-12-18T12:22:10;-2.50;99.90
2611;DHT22;5612;51.134;17.058;2022-12-18T12:24:53;-2.40;99.90
2611;DHT22;5612;51.134;17.058;2022-12-18T12:27:29;-2.30;99.90
2611;DHT22;5612;51.134;17.058;2022-12-18T12:30:07;-2.20;99.90
2611;DHT22;5612;51.134;17.058;2022-12-18T12:32:47;-2.20;99.90
2611;DHT22;5612;51.134;17.058;2022-12-18T12:35:32;-2.20;99.90
2611;DHT22;5612;51.134;17.058;2022-12-18T12:38:08;-2.10;99.90
2611;DHT22;5612;51.134;17.058;2022-12-18T12:40:42;-2.10;99.90
2611;DHT22;5612;51.134;17.058;2022-12-18T12:43:34;-2.20;99.90
2611;DHT22;5612;51.134;17.058;2022-12-18T12:46:10;-2.30;99.90
2611;DHT22;5612;51.134;17.058;2022-12-18T12:48:43;-2.30;99.90
2611;DHT22;5612;51.134;17.058;2022-12-18T12:51:18;-2.50;99.90
2611;DHT22;5612;51.134;17.058;2022-12-18T12:53:48;-2.50;99.90
2611;DHT22;5612;51.134;17.058;2022-12-18T12:56:20;-2.40;99.90
2611;DHT22;5612;51.134;17.058;2022-12-18T12:58:56;-2.40;99.90
2611;DHT22;5612;51.134;17.058;2022-12-18T13:01:33;-2.40;99.90
2611;DHT22;5612;51.134;17.058;2022-12-18T13:04:17;-2.30;99.90
2611;DHT22;5612;51.134;17.058;2022-12-18T13:06:56;-2.50;99.90
2611;DHT22;5612;51.134;17.058;2022-12-18T13:09:30;-2.50;99.90
2611;DHT22;5612;51.134;17.058;2022-12-18T13:12:03;-2.40;99.90
2611;DHT22;5612;51.134;17.058;2022-12-18T13:14:50;-2.30;99.90
2611;DHT22;5612;51.134;17.058;2022-12-18T13:17:29;-2.40;99.90
2611;DHT22;5612;51.134;17.058;2022-12-18T13:20:11;-2.30;99.90
2611;DHT22;5612;51.134;17.058;2022-12-18T13:22:46;-2.20;99.90
2611;DHT22;5612;51.134;17.058;2022-12-18T13:25:31;-2.40;99.90
2611;DHT22;5612;51.134;17.058;2022-12-18T13:28:11;-2.50;99.90
2611;DHT22;5612;51.134;17.058;2022-12-18T13:30:53;-2.50;99.90
2611;DHT22;5612;51.134;17.058;2022-12-18T13:33:41;-2.60;99.90
2611;DHT22;5612;51.134;17.058;2022-12-18T13:36:33;-2.60;99.90
2611;DHT22;5612;51.134;17.058;2022-12-18T13:39:24;-2.70;99.90
2611;DHT22;5612;51.134;17.058;2022-12-18T13:45:46;-3.00;1.00
2611;DHT22;5612;51.134;17.058;2022-12-18T13:48:18;-3.00;1.00
2611;DHT22;5612;51.134;17.058;2022-12-18T13:50:59;-2.90;1.00
2611;DHT22;5612;51.134;17.058;2022-12-18T13:53:39;-3.00;1.00
2611;DHT22;5612;51.134;17.058;2022-12-18T13:56:17;-3.20;1.00
2611;DHT22;5612;51.134;17.058;2022-12-18T13:59:10;-3.10;1.00
2611;DHT22;5612;51.134;17.058;2022-12-18T14:01:49;-3.00;1.00
2611;DHT22;5612;51.134;17.058;2022-12-18T14:04:26;-3.00;1.00
2611;DHT22;5612;51.134;17.058;2022-12-18T14:06:58;-3.00;1.00
2611;DHT22;5612;51.134;17.058;2022-12-18T14:09:34;-3.20;1.00
2611;DHT22;5612;51.134;17.058;2022-12-18T14:12:15;-3.30;61.40
2611;DHT22;5612;51.134;17.058;2022-12-18T14:15:03;-3.40;99.90
2611;DHT22;5612;51.134;17.058;2022-12-18T14:17:36;-3.50;99.90
2611;DHT22;5612;51.134;17.058;2022-12-18T14:20:13;-3.60;99.90
2611;DHT22;5612;51.134;17.058;2022-12-18T14:22:44;-3.60;99.90
2611;DHT22;5612;51.134;17.058;2022-12-18T14:25:19;-3.60;99.90
2611;DHT22;5612;51.134;17.058;2022-12-18T14:27:53;-3.70;1.00
2611;DHT22;5612;51.134;17.058;2022-12-18T14:30:32;-3.90;45.20
2611;DHT22;5612;51.134;17.058;2022-12-18T14:33:04;-4.00;1.00
2611;DHT22;5612;51.134;17.058;2022-12-18T14:35:42;-4.00;1.00
2611;DHT22;5612;51.134;17.058;2022-12-18T14:38:22;-4.00;1.00
2611;DHT22;5612;51.134;17.058;2022-12-18T14:40:57;-4.00;1.00
2611;DHT22;5612;51.134;17.058;2022-12-18T14:43:31;-4.10;99.90
2611;DHT22;5612;51.134;17.058;2022-12-18T14:46:02;-4.10;99.90
2611;DHT22;5612;51.134;17.058;2022-12-18T14:48:36;-4.20;1.00
2611;DHT22;5612;51.134;17.058;2022-12-18T14:51:14;-4.20;1.00
2611;DHT22;5612;51.134;17.058;2022-12-18T14:53:46;-4.20;99.90
2611;DHT22;5612;51.134;17.058;2022-12-18T14:56:23;-4.20;99.90
2611;DHT22;5612;51.134;17.058;2022-12-18T14:58:56;-4.20;99.90
2611;DHT22;5612;51.134;17.058;2022-12-18T15:01:28;-4.20;99.90
2611;DHT22;5612;51.134;17.058;2022-12-18T15:04:00;-4.20;99.90
2611;DHT22;5612;51.134;17.058;2022-12-18T15:06:32;-4.20;99.90
2611;DHT22;5612;51.134;17.058;2022-12-18T15:09:23;-4.20;99.90
2611;DHT22;5612;51.134;17.058;2022-12-18T15:11:57;-4.20;99.90
2611;DHT22;5612;51.134;17.058;2022-12-18T15:14:39;-4.20;1.00
2611;DHT22;5612;51.134;17.058;2022-12-18T15:17:17;-4.20;1.00
2611;DHT22;5612;51.134;17.058;2022-12-18T15:19:51;-4.20;1.00
2611;DHT22;5612;51.134;17.058;2022-12-18T15:22:26;-4.20;1.00
2611;DHT22;5612;51.134;17.058;2022-12-18T15:24:59;-4.20;1.00
2611;DHT22;5612;51.134;17.058;2022-12-18T15:27:31;-4.40;99.90
2611;DHT22;5612;51.134;17.058;2022-12-18T15:30:22;-4.40;99.90
2611;DHT22;5612;51.134;17.058;2022-12-18T15:33:17;-4.30;99.90
2611;DHT22;5612;51.134;17.058;2022-12-18T15:35:58;-4.40;99.90
2611;DHT22;5612;51.134;17.058;2022-12-18T15:38:29;-4.40;99.90
2611;DHT22;5612;51.134;17.058;2022-12-18T15:41:01;-4.30;99.90
2611;DHT22;5612;51.134;17.058;2022-12-18T15:43:40;-4.30;99.90
2611;DHT22;5612;51.134;17.058;2022-12-18T15:46:12;-4.30;99.90
2611;DHT22;5612;51.134;17.058;2022-12-18T15:48:45;-4.30;1.00
2611;DHT22;5612;51.134;17.058;2022-12-18T15:51:18;-4.20;1.00
2611;DHT22;5612;51.134;17.058;2022-12-18T15:53:54;-4.40;99.90
2611;DHT22;5612;51.134;17.058;2022-12-18T15:56:26;-4.50;1.00
2611;DHT22;5612;51.134;17.058;2022-12-18T15:59:15;-4.60;99.90
2611;DHT22;5612;51.134;17.058;2022-12-18T16:01:49;-4.60;99.90
2611;DHT22;5612;51.134;17.058;2022-12-18T16:04:25;-4.60;99.90
2611;DHT22;5612;51.134;17.058;2022-12-18T16:06:58;-4.60;99.90
2611;DHT22;5612;51.134;17.058;2022-12-18T16:09:44;-4.60;99.90
2611;DHT22;5612;51.134;17.058;2022-12-18T16:12:19;-4.50;99.90
2611;DHT22;5612;51.134;17.058;2022-12-18T16:15:02;-4.50;99.90
2611;DHT22;5612;51.134;17.058;2022-12-18T16:18:13;-4.60;99.90
2611;DHT22;5612;51.134;17.058;2022-12-18T16:20:58;-4.70;99.90
2611;DHT22;5612;51.134;17.058;2022-12-18T16:23:34;-4.80;99.90
2611;DHT22;5612;51.134;17.058;2022-12-18T16:26:07;-4.80;99.90
2611;DHT22;5612;51.134;17.058;2022-12-18T16:28:38;-4.80;99.90
2611;DHT22;5612;51.134;17.058;2022-12-18T16:31:16;-4.80;99.90
2611;DHT22;5612;51.134;17.058;2022-12-18T16:33:49;-4.80;99.90
2611;DHT22;5612;51.134;17.058;2022-12-18T16:36:24;-4.80;99.90
2611;DHT22;5612;51.134;17.058;2022-12-18T16:38:56;-4.80;99.90